San Luis Obispo, California
Current Conditions -  °F | °C
As of 10:56 AM on Tuesday 27 Jan 2015 (Local Time) from KSBP Reporting Station
Broken Clouds Broken Clouds  
Wind Chill: 62°   Ceiling: 8000
Heat Index: 62°   Visibility: 10mi
Dew Point: 54°   Wind: 0mph
Humidity: 75%   Direction: NA
Pressure: 30.21"   Gusts: NA
Location:  35.29°N, 120.66°W
Report Text: KSBP 271856Z 00000KT 10SM BKN080 17/12 A3021 RMK AO2 SLP228 T01670122
Loading
Personal Weather Stations






























Interactive Weather Map New forecast layout! Learn more

10-Day Weather Forecast

Advertisements
Track Severe Weather on mobile